createdAt,value
2022-08-16T00:01:26.665Z,53.90
2022-08-16T00:04:02.160Z,53.90
2022-08-16T00:06:33.785Z,53.90
2022-08-16T00:09:05.005Z,53.90
2022-08-16T00:11:34.113Z,53.90
2022-08-16T00:14:08.491Z,53.90
2022-08-16T00:17:11.786Z,53.90
2022-08-16T00:19:28.439Z,53.90
2022-08-16T00:22:13.800Z,53.90
2022-08-16T00:24:44.775Z,53.90
2022-08-16T00:27:15.393Z,53.90
2022-08-16T00:29:46.780Z,53.90
2022-08-16T00:32:18.126Z,53.90
2022-08-16T00:34:53.211Z,53.90
2022-08-16T00:37:24.103Z,54.00
2022-08-16T00:39:58.288Z,53.90
2022-08-16T00:42:30.434Z,54.00
2022-08-16T00:45:08.340Z,54.00
2022-08-16T00:47:40.353Z,54.60
2022-08-16T00:50:12.304Z,54.00
2022-08-16T00:52:50.272Z,54.00
2022-08-16T00:55:22.085Z,54.00
2022-08-16T00:57:59.609Z,54.00
2022-08-16T01:00:32.530Z,54.00
2022-08-16T01:03:08.143Z,54.00
2022-08-16T01:05:41.253Z,54.00
2022-08-16T01:08:35.804Z,54.00
2022-08-16T01:11:02.594Z,54.10
2022-08-16T01:13:33.766Z,54.10
2022-08-16T01:16:10.456Z,54.10
2022-08-16T01:18:43.264Z,54.10
2022-08-16T01:21:25.143Z,54.10
2022-08-16T01:24:52.760Z,54.10
2022-08-16T01:27:05.898Z,54.10
2022-08-16T01:29:57.202Z,54.10
2022-08-16T01:32:31.783Z,54.10
2022-08-16T01:35:05.810Z,54.10
2022-08-16T01:37:42.526Z,54.10
2022-08-16T01:40:15.380Z,54.10
2022-08-16T01:42:47.915Z,54.10
2022-08-16T01:45:19.643Z,54.10
2022-08-16T01:47:51.052Z,54.20
2022-08-16T01:51:05.197Z,54.10
2022-08-16T01:53:10.142Z,54.20
2022-08-16T01:55:41.514Z,54.10
2022-08-16T01:58:12.166Z,54.20
2022-08-16T02:00:40.991Z,54.20
2022-08-16T02:03:12.615Z,54.80
2022-08-16T02:05:42.086Z,54.20
2022-08-16T02:08:33.401Z,54.20
2022-08-16T02:11:06.446Z,54.10
2022-08-16T02:13:35.616Z,54.10
2022-08-16T02:16:18.501Z,54.10
2022-08-16T02:18:47.833Z,54.20
2022-08-16T02:21:17.001Z,54.20
2022-08-16T02:23:59.670Z,54.20
2022-08-16T02:26:29.624Z,54.30
2022-08-16T02:29:02.639Z,54.20
2022-08-16T02:32:02.605Z,54.20
2022-08-16T02:34:19.936Z,54.20
2022-08-16T02:37:01.032Z,54.20
2022-08-16T02:39:30.237Z,54.20
2022-08-16T02:42:00.344Z,54.30
2022-08-16T02:44:28.752Z,54.20
2022-08-16T02:46:56.926Z,54.20
2022-08-16T02:49:58.533Z,54.20
2022-08-16T02:52:17.185Z,54.30
2022-08-16T02:54:55.269Z,54.20
2022-08-16T02:57:25.251Z,54.30
2022-08-16T02:59:53.604Z,54.30
2022-08-16T03:02:31.897Z,54.30
2022-08-16T03:05:00.706Z,54.30
2022-08-16T03:07:30.011Z,54.40
2022-08-16T03:10:07.460Z,54.30
2022-08-16T03:12:55.090Z,54.30
2022-08-16T03:15:24.510Z,54.30
2022-08-16T03:17:54.276Z,54.40
2022-08-16T03:20:32.160Z,54.30
2022-08-16T03:23:01.976Z,54.30
2022-08-16T03:25:43.343Z,54.30
2022-08-16T03:28:17.206Z,54.40
2022-08-16T03:30:45.787Z,54.40
2022-08-16T03:33:16.309Z,54.30
2022-08-16T03:35:45.197Z,54.40
2022-08-16T03:38:33.041Z,54.40
2022-08-16T03:41:04.227Z,54.40
2022-08-16T03:43:51.398Z,54.40
2022-08-16T03:46:47.363Z,54.40
2022-08-16T03:49:12.313Z,54.40
2022-08-16T03:51:41.589Z,54.40
2022-08-16T03:54:12.243Z,54.40
2022-08-16T03:56:56.612Z,54.50
2022-08-16T03:59:29.858Z,54.50
2022-08-16T04:01:58.778Z,54.50
2022-08-16T04:04:33.203Z,54.50
2022-08-16T04:07:02.892Z,54.50
2022-08-16T04:09:35.687Z,54.50
2022-08-16T04:12:11.197Z,54.60
2022-08-16T04:14:56.819Z,54.60
2022-08-16T04:17:26.949Z,54.60
2022-08-16T04:19:58.007Z,54.70
2022-08-16T04:22:27.570Z,54.70
2022-08-16T04:24:59.146Z,54.70
2022-08-16T04:27:28.826Z,54.70
2022-08-16T04:30:03.002Z,54.80
2022-08-16T04:32:32.391Z,54.80
2022-08-16T04:35:04.882Z,54.80
2022-08-16T04:37:42.068Z,54.80
2022-08-16T04:40:12.233Z,54.80
2022-08-16T04:42:50.617Z,54.80
2022-08-16T04:45:35.642Z,54.80
2022-08-16T04:48:05.798Z,54.80
2022-08-16T04:50:34.610Z,54.90
2022-08-16T04:53:03.202Z,54.90
2022-08-16T04:55:38.289Z,54.90
2022-08-16T04:58:43.670Z,54.90
2022-08-16T05:00:58.858Z,55.00
2022-08-16T05:03:27.309Z,55.00
2022-08-16T05:06:01.388Z,55.00
2022-08-16T05:08:34.591Z,55.00
2022-08-16T05:11:06.024Z,55.00
2022-08-16T05:13:42.373Z,55.00
2022-08-16T05:16:16.618Z,55.10
2022-08-16T05:18:50.379Z,55.10
2022-08-16T05:21:21.364Z,55.10
2022-08-16T05:23:51.756Z,55.20
2022-08-16T05:26:27.888Z,55.20
2022-08-16T05:28:57.119Z,55.30
2022-08-16T05:31:29.502Z,55.30
2022-08-16T05:33:59.912Z,55.30
2022-08-16T05:36:33.788Z,55.40
2022-08-16T05:39:07.630Z,55.40
2022-08-16T05:41:44.723Z,55.50
2022-08-16T05:44:24.213Z,55.50
2022-08-16T05:46:56.916Z,55.40
2022-08-16T05:49:38.555Z,55.50
2022-08-16T05:52:11.314Z,55.50
2022-08-16T05:54:46.549Z,55.60
2022-08-16T05:57:16.174Z,55.60
2022-08-16T05:59:45.545Z,55.60
2022-08-16T06:02:15.769Z,55.80
2022-08-16T06:04:44.992Z,55.80
2022-08-16T06:07:25.214Z,55.80
2022-08-16T06:09:56.267Z,55.80
2022-08-16T06:12:27.547Z,55.90
2022-08-16T06:14:59.072Z,55.90
2022-08-16T06:17:41.498Z,56.00
2022-08-16T06:20:14.676Z,56.10
2022-08-16T06:22:58.740Z,56.10
2022-08-16T06:25:36.300Z,56.10
2022-08-16T06:28:09.772Z,56.20
2022-08-16T06:30:44.160Z,56.30
2022-08-16T06:33:22.119Z,56.30
2022-08-16T06:35:55.083Z,56.30
2022-08-16T06:38:33.947Z,56.30
2022-08-16T06:41:04.947Z,56.30
2022-08-16T06:43:35.137Z,56.40
2022-08-16T06:46:06.400Z,56.40
2022-08-16T06:48:42.937Z,56.50
2022-08-16T06:51:11.442Z,57.10
2022-08-16T06:53:42.971Z,56.40
2022-08-16T06:56:14.435Z,56.50
2022-08-16T06:58:52.584Z,56.50
2022-08-16T07:01:44.319Z,56.50
2022-08-16T07:04:12.070Z,56.50
2022-08-16T07:06:42.968Z,56.50
2022-08-16T07:09:12.698Z,56.50
2022-08-16T07:11:47.216Z,56.50
2022-08-16T07:14:24.982Z,56.60
2022-08-16T07:16:58.193Z,56.60
2022-08-16T07:19:33.519Z,56.60
2022-08-16T07:22:39.210Z,56.50
2022-08-16T07:25:10.364Z,56.50
2022-08-16T07:27:40.657Z,56.50
2022-08-16T07:30:39.112Z,56.50
2022-08-16T07:33:02.610Z,56.60
2022-08-16T07:35:32.520Z,56.50
2022-08-16T07:38:00.716Z,56.50
2022-08-16T07:40:57.930Z,56.50
2022-08-16T07:43:17.424Z,56.60
2022-08-16T07:45:51.120Z,56.60
2022-08-16T07:48:21.559Z,56.60
2022-08-16T07:50:56.077Z,56.60
2022-08-16T07:53:28.763Z,56.60
2022-08-16T07:55:57.828Z,56.60
2022-08-16T07:58:33.767Z,56.60
2022-08-16T08:01:10.063Z,56.60
2022-08-16T08:03:42.462Z,56.60
2022-08-16T08:06:13.420Z,56.60
2022-08-16T08:08:50.405Z,56.60
2022-08-16T08:11:21.264Z,56.70
2022-08-16T08:13:50.640Z,56.80
2022-08-16T08:16:19.859Z,56.70
2022-08-16T08:18:49.978Z,56.80
2022-08-16T08:21:27.694Z,56.80
2022-08-16T08:24:09.846Z,56.80
2022-08-16T08:26:38.457Z,56.70
2022-08-16T08:29:12.014Z,56.70
2022-08-16T08:31:42.411Z,56.80
2022-08-16T08:34:12.833Z,56.80
2022-08-16T08:36:42.558Z,56.80
2022-08-16T08:39:13.151Z,56.70
2022-08-16T08:41:42.477Z,56.80
2022-08-16T08:44:27.845Z,56.80
2022-08-16T08:47:00.419Z,56.90
2022-08-16T08:49:46.756Z,56.80
2022-08-16T08:52:35.088Z,56.80
2022-08-16T08:55:11.024Z,56.90
2022-08-16T08:57:41.770Z,56.80
2022-08-16T09:00:13.110Z,56.90
2022-08-16T09:02:44.560Z,57.00
2022-08-16T09:05:15.786Z,57.00
2022-08-16T09:08:00.506Z,57.00
2022-08-16T09:10:30.452Z,56.90
2022-08-16T09:12:59.604Z,56.90
2022-08-16T09:15:33.280Z,56.90
2022-08-16T09:18:25.114Z,57.00
2022-08-16T09:20:59.068Z,57.00
2022-08-16T09:23:36.270Z,57.00
2022-08-16T09:26:44.816Z,56.90
2022-08-16T09:29:17.097Z,57.00
2022-08-16T09:31:42.070Z,57.00
2022-08-16T09:34:11.198Z,57.10
2022-08-16T09:36:46.084Z,57.10
2022-08-16T09:39:18.075Z,57.00
2022-08-16T09:41:53.613Z,57.10
2022-08-16T09:45:10.885Z,57.10
2022-08-16T09:47:13.088Z,57.10
2022-08-16T09:49:41.532Z,57.10
2022-08-16T09:52:10.740Z,57.10
2022-08-16T09:54:44.500Z,57.10
2022-08-16T09:57:13.269Z,57.10
2022-08-16T09:59:42.125Z,57.10
2022-08-16T10:02:27.763Z,57.10
2022-08-16T10:04:57.939Z,57.10
2022-08-16T10:07:44.561Z,57.10
2022-08-16T10:10:19.185Z,57.10
2022-08-16T10:13:14.245Z,57.20
2022-08-16T10:15:45.053Z,57.10
2022-08-16T10:19:02.279Z,57.10
2022-08-16T10:21:13.378Z,57.20
2022-08-16T10:23:43.357Z,57.10
2022-08-16T10:27:17.073Z,57.10
2022-08-16T10:29:04.864Z,57.10
2022-08-16T10:31:44.512Z,57.10
2022-08-16T10:34:32.038Z,57.10
2022-08-16T10:37:02.002Z,57.10
2022-08-16T10:39:40.743Z,57.10
2022-08-16T10:42:13.198Z,57.10
2022-08-16T10:44:42.497Z,57.10
2022-08-16T10:47:11.442Z,57.10
2022-08-16T10:49:40.173Z,57.10
2022-08-16T10:52:18.829Z,57.10
2022-08-16T10:57:38.062Z,57.10
2022-08-16T11:00:21.002Z,57.10
2022-08-16T11:02:57.479Z,57.10
2022-08-16T11:05:28.698Z,57.10
2022-08-16T11:07:57.184Z,57.10
2022-08-16T11:13:57.020Z,57.10
2022-08-16T11:16:26.751Z,57.10
2022-08-16T11:19:04.555Z,57.10
2022-08-16T11:22:22.892Z,57.10
2022-08-16T11:24:41.633Z,57.10
2022-08-16T11:27:24.034Z,57.10
2022-08-16T11:30:02.389Z,57.10
2022-08-16T11:32:33.672Z,57.10
2022-08-16T11:35:14.394Z,57.10
2022-08-16T11:40:38.723Z,57.00
2022-08-16T11:43:09.946Z,57.00
2022-08-16T11:45:42.459Z,57.00
2022-08-16T11:48:10.973Z,57.10
2022-08-16T11:50:39.230Z,57.00
2022-08-16T11:53:08.332Z,57.00
2022-08-16T11:55:38.540Z,57.10
2022-08-16T11:58:07.619Z,57.10
2022-08-16T12:00:50.591Z,57.10
2022-08-16T12:03:34.299Z,57.10
2022-08-16T12:06:10.860Z,57.10
2022-08-16T12:08:41.252Z,57.10
2022-08-16T12:11:11.262Z,57.10
2022-08-16T12:13:40.980Z,57.00
2022-08-16T12:16:10.028Z,57.10
2022-08-16T12:18:40.870Z,57.10
2022-08-16T12:21:10.023Z,57.00
2022-08-16T12:23:38.783Z,57.10
2022-08-16T12:26:10.668Z,57.10
2022-08-16T12:28:55.799Z,57.00
2022-08-16T12:31:25.750Z,57.10
2022-08-16T12:33:57.514Z,57.10
2022-08-16T12:36:29.691Z,57.10
2022-08-16T12:38:58.953Z,57.10
2022-08-16T12:41:28.150Z,57.10
2022-08-16T12:43:56.894Z,57.10
2022-08-16T12:46:30.916Z,57.10
2022-08-16T12:49:01.093Z,57.10
2022-08-16T12:51:58.322Z,57.10
2022-08-16T12:54:21.336Z,57.00
2022-08-16T12:56:50.401Z,57.00
2022-08-16T12:59:20.790Z,57.00
2022-08-16T13:01:57.958Z,57.10
2022-08-16T13:04:33.280Z,57.10
2022-08-16T13:09:37.793Z,57.10
2022-08-16T13:12:19.825Z,57.10
2022-08-16T13:14:49.865Z,57.10
2022-08-16T13:17:20.939Z,57.10
2022-08-16T13:20:08.142Z,57.10
2022-08-16T13:25:08.813Z,57.10
2022-08-16T13:28:02.343Z,57.10
2022-08-16T13:30:37.734Z,57.20
2022-08-16T13:33:10.814Z,57.10
2022-08-16T13:35:43.927Z,57.10
2022-08-16T13:38:24.495Z,57.10
2022-08-16T13:40:56.202Z,57.20
2022-08-16T13:43:26.426Z,57.10
2022-08-16T13:45:55.949Z,57.10
2022-08-16T13:48:25.314Z,57.20
2022-08-16T13:50:58.022Z,57.20
2022-08-16T13:53:30.884Z,57.20
2022-08-16T13:56:01.027Z,57.10
2022-08-16T13:58:36.480Z,57.20
2022-08-16T14:01:09.834Z,57.10
2022-08-16T14:03:39.289Z,57.10
2022-08-16T14:06:10.716Z,57.10
2022-08-16T14:08:42.153Z,57.20
2022-08-16T14:11:12.082Z,57.10
2022-08-16T14:13:40.649Z,57.10
2022-08-16T14:16:12.457Z,57.10
2022-08-16T14:18:53.089Z,57.10
2022-08-16T14:21:24.106Z,57.10
2022-08-16T14:23:53.253Z,57.10
2022-08-16T14:26:21.664Z,57.10
2022-08-16T14:28:53.267Z,57.10
2022-08-16T14:31:23.109Z,57.20
2022-08-16T14:33:52.024Z,57.10
2022-08-16T14:36:29.583Z,57.20
2022-08-16T14:38:58.732Z,57.10
2022-08-16T14:41:27.764Z,57.20
2022-08-16T14:43:57.245Z,57.10
2022-08-16T14:46:25.532Z,57.10
2022-08-16T14:48:54.177Z,57.10
2022-08-16T14:51:27.386Z,57.10
2022-08-16T14:53:56.807Z,57.10
2022-08-16T14:56:38.508Z,57.10
2022-08-16T14:59:11.414Z,57.10
2022-08-16T15:01:42.415Z,57.10
2022-08-16T15:04:37.893Z,57.10
2022-08-16T15:07:12.848Z,57.10
2022-08-16T15:09:44.714Z,57.10
2022-08-16T15:12:33.290Z,57.10
2022-08-16T15:15:04.576Z,57.10
2022-08-16T15:17:54.516Z,57.10
2022-08-16T15:20:29.659Z,57.10
2022-08-16T15:23:01.421Z,57.10
2022-08-16T15:25:33.072Z,57.10
2022-08-16T15:28:05.388Z,57.00
2022-08-16T15:30:58.256Z,57.00
2022-08-16T15:33:26.898Z,57.00
2022-08-16T15:35:57.979Z,56.90
2022-08-16T15:38:58.146Z,57.00
2022-08-16T15:41:35.779Z,56.90
2022-08-16T15:44:10.291Z,56.90
2022-08-16T15:46:55.543Z,56.90
2022-08-16T15:49:37.121Z,56.80
2022-08-16T15:52:10.342Z,56.80
2022-08-16T15:54:52.163Z,56.80
2022-08-16T15:57:21.211Z,56.80
2022-08-16T15:59:52.835Z,56.80
2022-08-16T16:02:29.291Z,56.80
2022-08-16T16:05:01.747Z,56.80
2022-08-16T16:07:30.970Z,56.70
2022-08-16T16:10:01.275Z,56.70
2022-08-16T16:12:51.462Z,56.70
2022-08-16T16:15:22.626Z,56.70
2022-08-16T16:17:52.553Z,56.70
2022-08-16T16:20:26.946Z,56.70
2022-08-16T16:22:57.791Z,56.70
2022-08-16T16:25:29.309Z,56.60
2022-08-16T16:28:00.042Z,56.70
2022-08-16T16:30:37.456Z,56.60
2022-08-16T16:33:15.859Z,57.30
2022-08-16T16:35:55.305Z,56.60
2022-08-16T16:38:30.785Z,56.60
2022-08-16T16:41:04.786Z,56.60
2022-08-16T16:43:37.789Z,56.60
2022-08-16T16:46:38.986Z,56.60
2022-08-16T16:48:58.070Z,56.60
2022-08-16T16:51:27.977Z,56.60
2022-08-16T16:53:57.362Z,56.60
2022-08-16T16:56:31.440Z,56.60
2022-08-16T16:59:06.130Z,56.60
2022-08-16T17:01:59.561Z,56.60
2022-08-16T17:04:32.357Z,56.60
2022-08-16T17:07:01.808Z,56.60
2022-08-16T17:09:30.825Z,57.20
2022-08-16T17:12:00.474Z,56.50
2022-08-16T17:14:33.912Z,56.50
2022-08-16T17:17:06.651Z,56.50
2022-08-16T17:19:41.252Z,56.50
2022-08-16T17:22:14.872Z,56.50
2022-08-16T17:24:50.499Z,56.50
2022-08-16T17:27:32.899Z,56.50
2022-08-16T17:30:03.028Z,56.50
2022-08-16T17:32:47.793Z,56.50
2022-08-16T17:35:19.563Z,56.50
2022-08-16T17:37:51.886Z,56.50
2022-08-16T17:40:38.066Z,56.50
2022-08-16T17:43:14.563Z,56.50
2022-08-16T17:45:44.224Z,56.50
2022-08-16T17:48:13.001Z,56.40
2022-08-16T17:50:42.161Z,56.50
2022-08-16T17:53:11.807Z,56.40
2022-08-16T17:55:42.246Z,56.50
2022-08-16T17:58:22.790Z,56.40
2022-08-16T18:00:54.150Z,56.40
2022-08-16T18:04:07.982Z,56.40
2022-08-16T18:06:15.758Z,56.90
2022-08-16T18:08:44.012Z,56.40
2022-08-16T18:11:13.425Z,56.40
2022-08-16T18:13:43.559Z,56.40
2022-08-16T18:16:12.341Z,56.40
2022-08-16T18:18:40.557Z,56.40
2022-08-16T18:21:26.206Z,56.40
2022-08-16T18:23:54.733Z,56.50
2022-08-16T18:26:22.877Z,56.40
2022-08-16T18:28:52.465Z,56.40
2022-08-16T18:31:20.602Z,56.40
2022-08-16T18:33:49.469Z,56.40
2022-08-16T18:36:22.935Z,56.40
2022-08-16T18:38:52.246Z,56.40
2022-08-16T18:41:22.563Z,56.50
2022-08-16T18:44:22.316Z,56.40
2022-08-16T18:46:41.525Z,56.30
2022-08-16T18:49:09.954Z,56.40
2022-08-16T18:51:42.520Z,56.30
2022-08-16T18:54:10.525Z,56.40
2022-08-16T18:56:57.015Z,56.40
2022-08-16T18:59:29.022Z,56.30
2022-08-16T19:02:00.073Z,56.40
2022-08-16T19:04:56.876Z,56.30
2022-08-16T19:07:21.898Z,56.40
2022-08-16T19:09:50.005Z,56.40
2022-08-16T19:12:38.897Z,56.40
2022-08-16T19:15:12.200Z,56.40
2022-08-16T19:17:42.639Z,56.40
2022-08-16T19:20:11.951Z,56.40
2022-08-16T19:25:46.631Z,56.40
2022-08-16T19:28:48.334Z,56.40
2022-08-16T19:31:07.745Z,56.40
2022-08-16T19:33:35.923Z,56.40
2022-08-16T19:36:06.209Z,56.40
2022-08-16T19:38:34.315Z,56.40
2022-08-16T19:41:02.595Z,56.40
2022-08-16T19:43:30.840Z,56.40
2022-08-16T19:45:59.205Z,56.40
2022-08-16T19:48:28.844Z,56.40
2022-08-16T19:50:57.011Z,56.40
2022-08-16T19:53:27.424Z,56.40
2022-08-16T19:55:55.654Z,56.40
2022-08-16T19:58:23.769Z,56.40
2022-08-16T20:00:54.049Z,56.40
2022-08-16T20:03:26.220Z,56.40
2022-08-16T20:05:56.648Z,56.40
2022-08-16T20:08:25.042Z,56.40
2022-08-16T20:10:53.256Z,56.50
2022-08-16T20:13:23.377Z,56.40
2022-08-16T20:15:52.806Z,56.40
2022-08-16T20:18:25.268Z,56.40
2022-08-16T20:20:55.794Z,56.40
2022-08-16T20:23:25.121Z,56.50
2022-08-16T20:25:55.630Z,56.50
2022-08-16T20:28:51.713Z,56.40
2022-08-16T20:31:12.693Z,56.50
2022-08-16T20:33:40.852Z,56.50
2022-08-16T20:36:10.662Z,56.50
2022-08-16T20:38:47.223Z,56.50
2022-08-16T20:41:16.054Z,56.40
2022-08-16T20:43:45.523Z,56.50
2022-08-16T20:46:14.606Z,56.50
2022-08-16T20:48:43.182Z,56.50
2022-08-16T20:51:13.001Z,56.50
2022-08-16T20:53:42.345Z,56.50
2022-08-16T20:56:11.998Z,56.40
2022-08-16T20:58:40.340Z,56.50
2022-08-16T21:01:09.218Z,56.50
2022-08-16T21:03:37.952Z,56.50
2022-08-16T21:06:06.651Z,56.50
2022-08-16T21:08:52.594Z,56.50
2022-08-16T21:11:23.619Z,56.50
2022-08-16T21:14:00.095Z,56.50
2022-08-16T21:16:30.062Z,56.50
2022-08-16T21:18:58.186Z,56.50
2022-08-16T21:21:31.998Z,56.60
2022-08-16T21:24:03.220Z,57.10
2022-08-16T21:26:31.460Z,56.50
2022-08-16T21:28:59.608Z,56.50
2022-08-16T21:31:27.766Z,56.60
2022-08-16T21:33:56.480Z,56.60
2022-08-16T21:36:35.262Z,56.60
2022-08-16T21:39:06.761Z,56.50
2022-08-16T21:41:36.090Z,56.50
2022-08-16T21:44:04.752Z,56.60
2022-08-16T21:46:33.800Z,56.50
2022-08-16T21:49:01.951Z,56.50
2022-08-16T21:51:30.075Z,56.60
2022-08-16T21:53:58.262Z,56.60
2022-08-16T21:56:28.117Z,56.60
2022-08-16T21:58:56.290Z,56.60
2022-08-16T22:01:24.894Z,56.50
2022-08-16T22:04:01.643Z,56.60
2022-08-16T22:06:43.206Z,56.60
2022-08-16T22:09:15.217Z,56.60
2022-08-16T22:11:45.351Z,56.70
2022-08-16T22:14:13.540Z,56.50
2022-08-16T22:16:43.938Z,56.60
2022-08-16T22:19:13.627Z,56.50
2022-08-16T22:21:41.968Z,56.60
2022-08-16T22:24:11.377Z,56.50
2022-08-16T22:26:43.288Z,56.60
2022-08-16T22:29:15.415Z,56.50
2022-08-16T22:31:43.931Z,56.60
2022-08-16T22:34:12.194Z,56.60
2022-08-16T22:36:40.456Z,56.50
2022-08-16T22:39:10.957Z,56.60
2022-08-16T22:41:40.292Z,56.60
2022-08-16T22:44:08.886Z,56.60
2022-08-16T22:46:38.925Z,56.60
2022-08-16T22:49:08.668Z,56.60
2022-08-16T22:51:37.752Z,56.50
2022-08-16T22:54:39.245Z,56.60
2022-08-16T22:56:55.044Z,56.70
2022-08-16T22:59:24.897Z,56.50
2022-08-16T23:01:54.894Z,56.60
2022-08-16T23:04:23.911Z,56.60
2022-08-16T23:06:52.155Z,56.60
2022-08-16T23:09:20.414Z,56.70
2022-08-16T23:11:48.731Z,56.60
2022-08-16T23:14:17.452Z,56.70
2022-08-16T23:16:47.446Z,56.70
2022-08-16T23:19:18.980Z,56.70
2022-08-16T23:21:49.265Z,56.60
2022-08-16T23:24:19.406Z,56.70
2022-08-16T23:26:49.228Z,56.60
2022-08-16T23:29:23.843Z,56.70
2022-08-16T23:31:55.743Z,56.60
2022-08-16T23:34:26.780Z,56.60
2022-08-16T23:36:55.224Z,56.70
2022-08-16T23:39:23.536Z,56.60
2022-08-16T23:41:51.943Z,56.70
2022-08-16T23:44:55.844Z,56.60
2022-08-16T23:47:08.307Z,56.70
2022-08-16T23:50:01.699Z,56.70
2022-08-16T23:52:39.431Z,56.70
2022-08-16T23:55:17.169Z,56.70
2022-08-16T23:57:46.075Z,56.70
